Terminal Aerodrome Forecast
Issued by NWS

Home | Current Version | Previous Version | Text Only | Print | Product List | Glossary Off
Versions: 1 2 3 4 5 6 7 8 9 10 11 12 13 14 15 16 17 18 19 20 21 22 23 24 25

000
FTUS42 KMHX 291400 AAC
TAFOAJ
TAF AMD
KOAJ 291448Z 2915/3012 35005KT P6SM SCT050 BKN100
     FM291700 35005KT P6SM VCSH SCT025 OVC050
     FM300000 01005KT 5SM -RA SCT020 OVC040
      AMD LTD TO CLD VIS AND WIND=

USA.gov is the U.S. government's official web portal to all federal, state and local government web resources and services.